This is the latest recevied weather packets stored in our database for station/object N4QD-13. If no packets are shown the sender has not sent any weather packets the latest 1 day(s).
| Time | Temp. | Humidity | Pressure | Rain* | Wind** | Luminosity | Snow |
|---|---|---|---|---|---|---|---|
| 1778073205 | 15.56° C | 99% | 1011.2 hPa | 1.78 mm | - | 39 W/m² | - |
| 1778071693 | 15.56° C | 95% | 1010.9 hPa | 1.27 mm | - | 64 W/m² | - |
| 1778071389 | 15.56° C | 94% | 1011 hPa | 1.27 mm | - | 63 W/m² | - |
| 1778071087 | 15.56° C | 94% | 1010.9 hPa | 1.78 mm | - | 44 W/m² | - |
| 1778070482 | 15.56° C | 94% | 1011.2 hPa | 0 mm | - | 26 W/m² | - |
| 1778070179 | 15.56° C | 94% | 1011.2 hPa | 0 mm | - | 42 W/m² | - |
| 1778069877 | 15.56° C | 93% | 1011.1 hPa | 0 mm | - | 50 W/m² | - |
| 1778069271 | 15.56° C | 93% | 1011.1 hPa | 1.27 mm | - | 18 W/m² | - |
| 1778068666 | 15.56° C | 93% | 1011.2 hPa | 1.78 mm | - | 29 W/m² | - |
| 1778068364 | 16.11° C | 91% | 1011.1 hPa | 3.05 mm | - | 27 W/m² | - |
| 1778066246 | 16.11° C | 90% | 1010.7 hPa | 0 mm | - | 22 W/m² | - |
| 1778064127 | 16.67° C | 83% | 1010.8 hPa | 0 mm | - | 0 W/m² | - |
| 1778063219 | 17.78° C | 77% | 1011 hPa | 0 mm | - | 0 W/m² | - |
| 1778062310 | 17.78° C | 74% | 1010.6 hPa | 0 mm | - | 0 W/m² | - |
| 1778062008 | 17.78° C | 73% | 1010.4 hPa | 0 mm | - | 0 W/m² | - |
| 1778061706 | 17.78° C | 73% | 1010.6 hPa | 0 mm | - | 0 W/m² | - |
| 1778061404 | 17.78° C | 72% | 1010.4 hPa | 0 mm | - | 0 W/m² | - |
| 1778060798 | 17.78° C | 71% | 1010.4 hPa | 0 mm | - | 0 W/m² | - |
| 1778060194 | 18.33° C | 70% | 1010.5 hPa | 0 mm | - | 0 W/m² | - |
| 1778058983 | 18.33° C | 67% | 1010.2 hPa | 0 mm | - | 0 W/m² | - |
| 1778058379 | 18.89° C | 66% | 1010.5 hPa | 0 mm | - | 0 W/m² | - |
| 1778057468 | 19.44° C | 64% | 1010.6 hPa | 0 mm | - | 0 W/m² | - |
| 1778057165 | 19.44° C | 63% | 1010.7 hPa | 0 mm | - | 0 W/m² | - |
| 1778056861 | 20° C | 62% | 1010.6 hPa | 0 mm | - | 0 W/m² | - |
| 1778056558 | 20.56° C | 60% | 1010.5 hPa | 0 mm | - | 0 W/m² | - |
* Rain latest hour (hover to see other rain measurements)
** Current wind speed in m/s (hover to see current wind gust speed)